Time;durP1;ratioP1;P1;durP2;ratioP2;P2;SDS_P1;SDS_P2;PMS_P1;PMS_P2;Temp;Humidity;BMP_temperature;BMP_pressure;BME280_temperature;BME280_humidity;BME280_pressure;Samples;Min_cycle;Max_cycle;Signal;HPM_P1;HPM_P2
2023/04/03 00:00:31;;;;;;;4.27;1.50;;;1.80;99.90;;;;;;5021905;28;20200;-63
2023/04/03 00:02:58;;;;;;;1.80;1.20;;;1.80;99.90;;;;;;4990408;28;20216;-62
2023/04/03 00:05:25;;;;;;;2.53;1.40;;;1.90;99.90;;;;;;5027390;28;20205;-63
2023/04/03 00:07:52;;;;;;;4.93;1.50;;;1.90;99.90;;;;;;5009718;28;20701;-63
2023/04/03 00:10:20;;;;;;;3.10;1.00;;;1.80;99.90;;;;;;5012614;28;20220;-62
2023/04/03 00:12:47;;;;;;;3.00;1.30;;;1.90;99.90;;;;;;5022448;28;20205;-63
2023/04/03 00:15:14;;;;;;;4.07;1.43;;;1.90;99.90;;;;;;5024320;28;20211;-62
2023/04/03 00:17:42;;;;;;;3.93;1.40;;;1.90;99.90;;;;;;4996212;28;20212;-63
2023/04/03 00:20:10;;;;;;;3.13;1.27;;;1.90;99.90;;;;;;5023278;28;20208;-63
2023/04/03 00:22:37;;;;;;;2.40;1.43;;;1.90;99.90;;;;;;5027141;28;20201;-63
2023/04/03 00:25:04;;;;;;;4.07;1.33;;;1.80;99.90;;;;;;5000299;28;20204;-62
2023/04/03 00:27:32;;;;;;;3.17;1.43;;;1.80;99.90;;;;;;5027228;28;20220;-63
2023/04/03 00:29:59;;;;;;;7.50;2.07;;;1.60;99.90;;;;;;5027736;28;20208;-62
2023/04/03 00:32:25;;;;;;;1.87;1.47;;;1.30;99.90;;;;;;4998880;28;20428;-63
2023/04/03 00:34:52;;;;;;;4.67;1.50;;;1.50;99.90;;;;;;5030046;28;20209;-63
2023/04/03 00:37:19;;;;;;;8.40;2.50;;;1.60;99.90;;;;;;5022384;28;20204;-62
2023/04/03 00:39:46;;;;;;;5.77;2.10;;;1.60;99.90;;;;;;5016883;28;20568;-63
2023/04/03 00:42:13;;;;;;;4.17;1.60;;;1.60;99.90;;;;;;5011237;28;20575;-63
2023/04/03 00:45:17;;;;;;;2.10;1.53;;;1.60;99.90;;;;;;5018716;28;20223;-63
2023/04/03 00:47:45;;;;;;;5.77;1.90;;;1.50;99.90;;;;;;5000088;28;20228;-63
2023/04/03 00:50:12;;;;;;;6.93;2.10;;;1.50;99.90;;;;;;5028035;28;21032;-63
2023/04/03 00:52:39;;;;;;;7.47;2.20;;;1.50;99.90;;;;;;5031164;28;20230;-63
2023/04/03 00:55:10;;;;;;;3.80;1.87;;;1.60;99.90;;;;;;5007522;28;20926;-63
2023/04/03 00:57:38;;;;;;;3.77;1.43;;;1.60;99.90;;;;;;5026316;28;20199;-63
2023/04/03 01:00:09;;;;;;;3.67;1.40;;;1.50;99.90;;;;;;5017314;28;20196;-62
2023/04/03 01:02:36;;;;;;;2.77;1.40;;;1.20;99.90;;;;;;4987823;28;20291;-63
2023/04/03 01:05:06;;;;;;;2.23;1.27;;;1.20;99.90;;;;;;5030290;28;20204;-63
2023/04/03 01:07:35;;;;;;;1.73;1.43;;;1.10;99.90;;;;;;5012273;28;20223;-63
2023/04/03 01:10:05;;;;;;;5.40;1.60;;;1.00;99.90;;;;;;5014127;28;20198;-63
2023/04/03 01:12:34;;;;;;;3.43;1.50;;;0.90;99.90;;;;;;5011628;28;20254;-63
2023/04/03 01:15:05;;;;;;;4.20;1.30;;;0.70;99.90;;;;;;5016140;28;20549;-63
2023/04/03 01:17:35;;;;;;;2.57;1.43;;;0.70;99.90;;;;;;5004127;28;20206;-63
2023/04/03 01:20:32;;;;;;;1.20;0.90;;;0.70;99.90;;;;;;5026798;28;20212;-63
2023/04/03 01:23:07;;;;;;;6.47;1.30;;;0.80;99.90;;;;;;5011786;28;20713;-63
2023/04/03 01:25:35;;;;;;;3.73;1.30;;;0.80;99.90;;;;;;4994182;28;20194;-63
2023/04/03 01:28:02;;;;;;;3.10;1.60;;;0.90;99.90;;;;;;5022564;28;20259;-63
2023/04/03 01:30:32;;;;;;;4.13;1.33;;;0.90;99.90;;;;;;5015058;28;20215;-62
2023/04/03 01:33:00;;;;;;;5.13;1.40;;;0.90;99.90;;;;;;5024331;28;20203;-62
2023/04/03 01:35:27;;;;;;;5.80;1.50;;;1.00;99.90;;;;;;4995075;28;20218;-63
2023/04/03 01:37:54;;;;;;;3.37;1.40;;;0.90;99.90;;;;;;5023298;28;20829;-63
2023/04/03 01:40:21;;;;;;;4.03;1.40;;;0.90;99.90;;;;;;5025408;28;20202;-63
2023/04/03 01:42:48;;;;;;;3.33;1.40;;;0.90;99.90;;;;;;4996189;28;20234;-62
2023/04/03 01:45:15;;;;;;;3.03;1.20;;;0.90;99.90;;;;;;5023534;28;20197;-63
2023/04/03 01:47:41;;;;;;;6.10;1.53;;;0.90;99.90;;;;;;5015153;28;20221;-63
2023/04/03 01:50:10;;;;;;;3.87;1.60;;;0.90;99.90;;;;;;4992379;28;20202;-62
2023/04/03 01:52:37;;;;;;;7.23;1.87;;;0.90;99.90;;;;;;5018340;28;20235;-64
2023/04/03 01:55:05;;;;;;;6.67;1.87;;;0.90;99.90;;;;;;5027871;28;20581;-63
2023/04/03 01:57:32;;;;;;;3.40;1.83;;;0.80;99.90;;;;;;5010142;28;20207;-63
2023/04/03 01:59:58;;;;;;;2.43;1.40;;;0.80;99.90;;;;;;5025410;28;20195;-63
2023/04/03 02:02:25;;;;;;;3.70;1.57;;;0.80;99.90;;;;;;5018094;28;20301;-63
2023/04/03 02:04:52;;;;;;;2.23;1.47;;;0.70;99.90;;;;;;4998223;28;20216;-63
2023/04/03 02:07:20;;;;;;;2.97;1.33;;;0.80;99.90;;;;;;5031996;28;20197;-63
2023/04/03 02:09:47;;;;;;;2.13;1.47;;;0.70;99.90;;;;;;5026082;28;20852;-63
2023/04/03 02:12:14;;;;;;;9.03;1.73;;;0.70;99.90;;;;;;5006701;28;20783;-62
2023/04/03 02:14:40;;;;;;;6.70;1.90;;;0.60;99.90;;;;;;5026309;28;20309;-62
2023/04/03 02:17:08;;;;;;;4.60;1.70;;;0.60;99.90;;;;;;5017293;28;20210;-63
2023/04/03 02:19:35;;;;;;;6.00;1.97;;;0.60;99.90;;;;;;4999287;28;20263;-63
2023/04/03 02:22:02;;;;;;;4.80;1.50;;;0.60;99.90;;;;;;5004505;28;20233;-62
2023/04/03 02:24:30;;;;;;;1.30;1.20;;;0.70;99.90;;;;;;5024413;28;20567;-62
2023/04/03 02:26:58;;;;;;;2.77;1.43;;;0.60;99.90;;;;;;4996172;28;20213;-62
2023/04/03 02:29:25;;;;;;;4.67;1.70;;;0.60;99.90;;;;;;5020392;28;20229;-62
2023/04/03 02:31:52;;;;;;;4.20;1.63;;;0.60;99.90;;;;;;5023264;28;20199;-63
2023/04/03 02:34:19;;;;;;;5.90;1.77;;;0.50;99.90;;;;;;5017933;28;20221;-63
2023/04/03 02:36:46;;;;;;;3.73;1.40;;;0.60;99.90;;;;;;4992970;28;20223;-62
2023/04/03 02:39:13;;;;;;;2.17;1.30;;;0.70;99.90;;;;;;5033747;28;20197;-63
2023/04/03 02:41:41;;;;;;;3.43;1.57;;;0.60;99.90;;;;;;5012823;28;23024;-63
2023/04/03 02:44:10;;;;;;;3.50;1.73;;;0.50;99.90;;;;;;5015241;28;20228;-62
2023/04/03 02:46:37;;;;;;;3.33;1.60;;;0.50;99.90;;;;;;5014260;28;20478;-63
2023/04/03 02:49:04;;;;;;;6.37;1.87;;;0.60;99.90;;;;;;5012486;28;20245;-63
2023/04/03 02:51:31;;;;;;;7.93;1.80;;;0.60;99.90;;;;;;4992770;28;21093;-63
2023/04/03 02:53:58;;;;;;;2.90;1.43;;;0.60;99.90;;;;;;5025224;28;20229;-63
2023/04/03 02:56:26;;;;;;;5.73;1.63;;;0.60;99.90;;;;;;5021405;28;20203;-63
2023/04/03 02:58:54;;;;;;;5.03;2.23;;;0.50;99.90;;;;;;4998592;28;20223;-62
2023/04/03 03:01:21;;;;;;;6.70;2.20;;;0.40;99.90;;;;;;5022034;28;20388;-62
2023/04/03 03:03:48;;;;;;;3.10;1.60;;;0.40;99.90;;;;;;5001309;28;20961;-62
2023/04/03 03:06:17;;;;;;;3.10;2.10;;;0.30;99.90;;;;;;5008665;28;20216;-63
2023/04/03 03:08:44;;;;;;;1.60;1.27;;;0.20;99.90;;;;;;5002941;28;20724;-63
2023/04/03 03:11:11;;;;;;;2.87;1.70;;;0.20;99.90;;;;;;5029111;28;20230;-62
2023/04/03 03:13:38;;;;;;;8.10;1.67;;;0.10;99.90;;;;;;4999001;28;20211;-63
2023/04/03 03:16:07;;;;;;;5.53;1.73;;;0.10;99.90;;;;;;5014330;28;21025;-63
2023/04/03 03:18:35;;;;;;;4.40;1.70;;;0.10;99.90;;;;;;5011329;28;20214;-62
2023/04/03 03:21:03;;;;;;;3.77;1.60;;;0.20;99.90;;;;;;5021957;28;20693;-63
2023/04/03 03:23:32;;;;;;;10.90;2.03;;;0.20;99.90;;;;;;4991737;28;20216;-62
2023/04/03 03:25:59;;;;;;;3.60;2.10;;;0.10;99.90;;;;;;5008663;28;20353;-63
2023/04/03 03:28:27;;;;;;;2.97;2.07;;;0.10;99.90;;;;;;5002980;28;20227;-63
2023/04/03 03:30:54;;;;;;;9.70;1.87;;;0.10;99.90;;;;;;5003230;28;20208;-62
2023/04/03 03:33:22;;;;;;;3.03;1.70;;;0.10;99.90;;;;;;5014845;28;20207;-62
2023/04/03 03:35:49;;;;;;;6.33;1.90;;;0.10;99.90;;;;;;5021030;28;20726;-63
2023/04/03 03:38:16;;;;;;;2.37;1.50;;;0.10;99.90;;;;;;4992225;28;20216;-63
2023/04/03 03:40:43;;;;;;;2.77;1.57;;;0.10;99.90;;;;;;5016973;28;20948;-63
2023/04/03 03:43:10;;;;;;;4.40;1.67;;;0.10;99.90;;;;;;5023564;28;20562;-63
2023/04/03 03:45:36;;;;;;;5.37;1.70;;;0.00;99.90;;;;;;5005827;28;20205;-63
2023/04/03 03:48:04;;;;;;;3.23;1.57;;;0.00;99.90;;;;;;5010431;28;20416;-63
2023/04/03 03:50:32;;;;;;;5.70;2.20;;;0.00;99.90;;;;;;5025002;28;20673;-62
2023/04/03 03:52:59;;;;;;;6.23;2.10;;;0.00;99.90;;;;;;4991398;28;20679;-63
2023/04/03 03:55:26;;;;;;;3.57;1.73;;;0.00;99.90;;;;;;5014334;28;20208;-63
2023/04/03 03:57:52;;;;;;;7.17;2.13;;;0.00;99.90;;;;;;5015724;28;20199;-62
2023/04/03 04:00:20;;;;;;;4.77;2.10;;;0.00;99.90;;;;;;5007539;28;20641;-62
2023/04/03 04:02:46;;;;;;;6.53;2.00;;;0.00;99.90;;;;;;5027223;28;20200;-62
2023/04/03 04:05:13;;;;;;;5.93;1.80;;;0.00;99.90;;;;;;5030548;28;20207;-63
2023/04/03 04:07:41;;;;;;;2.10;1.40;;;0.00;99.90;;;;;;5020890;28;20695;-62
2023/04/03 04:10:09;;;;;;;6.03;2.10;;;-0.10;99.90;;;;;;4991913;28;20232;-63
2023/04/03 04:12:36;;;;;;;9.30;2.13;;;-0.10;99.90;;;;;;5018848;28;20210;-62
2023/04/03 04:15:04;;;;;;;7.33;2.43;;;-0.20;99.90;;;;;;5016773;28;20495;-63
2023/04/03 04:17:31;;;;;;;8.87;2.37;;;-0.10;99.90;;;;;;5014908;28;20208;-62
2023/04/03 04:19:58;;;;;;;5.27;1.70;;;-0.10;99.90;;;;;;5025125;28;20207;-62
2023/04/03 04:22:25;;;;;;;5.93;2.17;;;-0.10;99.90;;;;;;5024039;28;20197;-62
2023/04/03 04:24:53;;;;;;;9.53;2.67;;;-0.10;99.90;;;;;;4993022;28;20243;-63
2023/04/03 04:27:20;;;;;;;3.20;2.10;;;-0.10;99.90;;;;;;5023426;28;20735;-62
2023/04/03 04:29:47;;;;;;;6.30;2.10;;;-0.10;99.90;;;;;;5015418;28;20240;-63
2023/04/03 04:32:13;;;;;;;6.73;2.57;;;-0.20;99.90;;;;;;5015298;28;20199;-63
2023/04/03 04:34:40;;;;;;;7.17;2.50;;;-0.20;99.90;;;;;;5027204;28;20219;-62
2023/04/03 04:37:07;;;;;;;5.37;2.17;;;-0.20;99.90;;;;;;5024797;28;20192;-63
2023/04/03 04:39:35;;;;;;;3.83;2.20;;;-0.20;99.90;;;;;;5012801;28;20194;-63
2023/04/03 04:42:03;;;;;;;6.30;2.50;;;-0.30;99.90;;;;;;5001237;28;20414;-63
2023/04/03 04:44:30;;;;;;;7.07;2.40;;;-0.30;99.90;;;;;;5024643;28;20213;-63
2023/04/03 04:46:57;;;;;;;4.90;2.13;;;-0.20;99.90;;;;;;5001897;28;20212;-63
2023/04/03 04:49:24;;;;;;;7.03;2.47;;;-0.30;99.90;;;;;;5028755;28;20457;-63
2023/04/03 04:51:51;;;;;;;6.70;2.60;;;-0.30;99.90;;;;;;5029895;28;20790;-62
2023/04/03 04:54:18;;;;;;;4.13;2.50;;;-0.30;99.90;;;;;;5030301;28;20208;-63
2023/04/03 04:56:44;;;;;;;3.57;2.27;;;-0.40;99.90;;;;;;4989677;28;20697;-62
2023/04/03 04:59:13;;;;;;;3.77;2.30;;;-0.40;99.90;;;;;;5024504;28;20202;-63
2023/04/03 05:01:40;;;;;;;3.47;1.83;;;-0.50;99.90;;;;;;5013449;28;20580;-62
2023/04/03 05:04:07;;;;;;;3.83;2.40;;;-0.50;99.90;;;;;;5022469;28;20815;-62
2023/04/03 05:06:34;;;;;;;6.53;2.33;;;-0.40;99.90;;;;;;5025938;28;20225;-63
2023/04/03 05:09:02;;;;;;;4.57;2.37;;;-0.40;99.90;;;;;;5024516;28;20828;-63
2023/04/03 05:11:28;;;;;;;6.77;2.60;;;-0.40;99.90;;;;;;4996575;28;20201;-62
2023/04/03 05:13:55;;;;;;;3.27;2.30;;;-0.30;99.90;;;;;;5017318;28;21932;-63
2023/04/03 05:16:23;;;;;;;4.70;2.43;;;-0.30;99.90;;;;;;5025275;28;20430;-63
2023/04/03 05:18:50;;;;;;;5.87;2.63;;;-0.20;99.90;;;;;;5011721;28;20199;-63
2023/04/03 05:21:18;;;;;;;6.37;2.53;;;-0.10;99.90;;;;;;5022254;28;20723;-63
2023/04/03 05:23:45;;;;;;;3.30;2.47;;;-0.10;99.90;;;;;;5026927;28;20639;-62
2023/04/03 05:26:12;;;;;;;4.97;2.93;;;-0.10;99.90;;;;;;4991735;28;20930;-63
2023/04/03 05:28:38;;;;;;;3.27;2.20;;;-0.20;99.90;;;;;;5011831;28;20206;-62
2023/04/03 05:31:05;;;;;;;4.53;2.13;;;-0.30;99.90;;;;;;5022195;28;21923;-62
2023/04/03 05:33:33;;;;;;;6.73;2.47;;;-0.40;99.90;;;;;;5001019;28;20715;-62
2023/04/03 05:36:04;;;;;;;3.90;2.53;;;-0.50;99.90;;;;;;5023889;28;20240;-63
2023/04/03 05:38:31;;;;;;;6.90;2.47;;;-0.50;99.90;;;;;;5028563;28;20261;-62
2023/04/03 05:40:58;;;;;;;7.83;2.37;;;-0.40;99.90;;;;;;5001107;28;20206;-63
2023/04/03 05:43:25;;;;;;;6.40;2.70;;;-0.30;99.90;;;;;;5002199;28;20391;-63
2023/04/03 05:45:52;;;;;;;5.20;2.47;;;-0.30;99.90;;;;;;5018313;28;20199;-63
2023/04/03 05:48:19;;;;;;;5.63;2.50;;;-0.40;99.90;;;;;;5032495;28;20252;-62
2023/04/03 05:50:47;;;;;;;4.17;2.20;;;-0.40;99.90;;;;;;5004518;28;20227;-63
2023/04/03 05:53:19;;;;;;;4.30;2.63;;;-0.40;99.90;;;;;;5023003;28;20216;-62
2023/04/03 05:55:46;;;;;;;6.10;2.20;;;-0.40;99.90;;;;;;5018837;28;20549;-63
2023/04/03 05:58:13;;;;;;;3.57;2.10;;;-0.30;99.90;;;;;;4993634;28;20211;-63
2023/04/03 06:00:40;;;;;;;4.87;2.40;;;-0.30;99.90;;;;;;5025630;28;20215;-63
2023/04/03 06:03:06;;;;;;;3.80;2.00;;;-0.20;99.90;;;;;;5025092;28;20756;-63
2023/04/03 06:05:34;;;;;;;5.00;2.17;;;-0.20;99.90;;;;;;5010301;28;20203;-62
2023/04/03 06:08:03;;;;;;;4.73;2.23;;;-0.20;99.90;;;;;;4991791;28;20242;-63
2023/04/03 06:10:30;;;;;;;5.73;2.57;;;-0.10;99.90;;;;;;5018734;28;20723;-63
2023/04/03 06:12:57;;;;;;;3.50;1.90;;;0.00;99.90;;;;;;4987526;28;20226;-63
2023/04/03 06:15:24;;;;;;;7.53;2.37;;;0.00;99.90;;;;;;5022418;28;20959;-62
2023/04/03 06:17:51;;;;;;;4.43;2.20;;;0.10;99.90;;;;;;5028572;28;20191;-63
2023/04/03 06:20:18;;;;;;;5.00;2.17;;;0.20;99.90;;;;;;4999736;28;20676;-62
2023/04/03 06:22:45;;;;;;;5.60;2.13;;;0.30;99.90;;;;;;5023980;28;20398;-62
2023/04/03 06:25:14;;;;;;;7.40;2.27;;;0.30;99.90;;;;;;5030984;28;20201;-62
2023/04/03 06:27:41;;;;;;;7.13;2.30;;;0.40;99.90;;;;;;5014537;28;20618;-62
2023/04/03 06:30:08;;;;;;;4.60;1.83;;;0.40;99.90;;;;;;5002447;28;20227;-63
2023/04/03 06:32:35;;;;;;;5.87;2.20;;;0.50;99.90;;;;;;5026672;28;20205;-62
2023/04/03 06:35:03;;;;;;;4.87;1.87;;;0.50;99.90;;;;;;5029004;28;20784;-63
2023/04/03 06:37:30;;;;;;;8.67;2.30;;;0.50;99.90;;;;;;5012829;28;20224;-63
2023/04/03 06:39:57;;;;;;;6.37;2.37;;;0.60;99.90;;;;;;5031777;28;20627;-63
2023/04/03 06:42:25;;;;;;;8.87;2.50;;;0.70;99.90;;;;;;5023231;28;20235;-63
2023/04/03 06:44:52;;;;;;;6.67;2.07;;;0.70;99.90;;;;;;4997050;28;20842;-63
2023/04/03 06:47:19;;;;;;;6.47;2.27;;;0.80;99.90;;;;;;5033820;28;20204;-63
2023/04/03 06:49:46;;;;;;;5.63;2.23;;;0.90;99.90;;;;;;5030920;28;20219;-63
2023/04/03 06:52:13;;;;;;;7.33;2.23;;;1.00;99.90;;;;;;5010002;28;20234;-63
2023/04/03 06:54:40;;;;;;;5.90;2.47;;;1.00;99.90;;;;;;5027375;28;20218;-63
2023/04/03 06:57:07;;;;;;;4.33;2.20;;;1.00;99.90;;;;;;5027551;28;20221;-62
2023/04/03 06:59:36;;;;;;;5.30;2.37;;;1.10;99.90;;;;;;4996568;28;20224;-64
2023/04/03 07:02:03;;;;;;;3.20;1.80;;;1.20;99.90;;;;;;5013945;28;20714;-63
2023/04/03 07:04:30;;;;;;;6.23;2.10;;;1.30;99.90;;;;;;5005317;28;20227;-63
2023/04/03 07:06:57;;;;;;;6.63;2.20;;;1.30;99.90;;;;;;5003210;28;20766;-63
2023/04/03 07:09:24;;;;;;;6.30;2.40;;;1.40;99.90;;;;;;5018956;28;20208;-63
2023/04/03 07:11:51;;;;;;;7.90;2.40;;;1.50;99.90;;;;;;5010973;28;20317;-63
2023/04/03 07:14:18;;;;;;;4.63;2.20;;;1.60;99.90;;;;;;4985267;28;20855;-63
2023/04/03 07:16:46;;;;;;;6.10;2.10;;;1.70;99.90;;;;;;5003305;28;20761;-63
2023/04/03 07:19:13;;;;;;;9.63;2.27;;;1.80;99.90;;;;;;5018512;28;20195;-63
2023/04/03 07:21:41;;;;;;;5.07;2.10;;;1.90;99.90;;;;;;5011339;28;20206;-63
2023/04/03 07:24:08;;;;;;;5.77;1.97;;;2.00;99.90;;;;;;4992971;28;20228;-63
2023/04/03 07:26:35;;;;;;;6.10;2.00;;;2.20;99.90;;;;;;5009013;28;20986;-63
2023/04/03 07:29:02;;;;;;;8.80;2.20;;;2.20;99.90;;;;;;5025210;28;20217;-63
2023/04/03 07:31:29;;;;;;;3.13;1.90;;;2.20;99.90;;;;;;4990284;28;20238;-63
2023/04/03 07:33:57;;;;;;;7.50;2.00;;;2.40;99.90;;;;;;5028370;28;20207;-63
2023/04/03 07:36:24;;;;;;;3.77;1.40;;;2.50;99.90;;;;;;5002959;28;20234;-63
2023/04/03 07:38:51;;;;;;;6.60;1.93;;;2.60;99.90;;;;;;5006191;28;20401;-63
2023/04/03 07:41:22;;;;;;;6.90;1.93;;;2.60;99.90;;;;;;5009730;28;20211;-63
2023/04/03 07:43:49;;;;;;;5.40;1.90;;;2.80;99.90;;;;;;5018679;28;20308;-64
2023/04/03 07:46:17;;;;;;;3.63;1.70;;;2.90;99.90;;;;;;4984767;28;20238;-63
2023/04/03 07:48:44;;;;;;;5.73;1.60;;;2.90;99.90;;;;;;5019820;28;20683;-63
2023/04/03 07:51:13;;;;;;;4.90;1.43;;;3.00;99.90;;;;;;5020232;28;20338;-63
2023/04/03 07:53:40;;;;;;;5.83;1.90;;;3.10;99.90;;;;;;4976838;28;20773;-63
2023/04/03 07:56:09;;;;;;;5.57;1.83;;;3.20;99.90;;;;;;5009400;28;21167;-63
2023/04/03 07:58:36;;;;;;;3.43;1.37;;;3.30;99.90;;;;;;4958717;28;20533;-63
2023/04/03 08:01:03;;;;;;;4.77;1.30;;;3.50;99.90;;;;;;4982946;28;20243;-63
2023/04/03 08:03:29;;;;;;;2.17;1.17;;;4.30;99.90;;;;;;4988409;28;20219;-63
2023/04/03 08:06:04;;;;;;;2.20;1.00;;;5.20;99.90;;;;;;5017473;28;20213;-63
2023/04/03 08:08:32;;;;;;;4.77;1.30;;;5.10;99.90;;;;;;5002298;28;20217;-63
2023/04/03 08:11:02;;;;;;;2.93;1.10;;;5.00;99.90;;;;;;5011401;28;20574;-63
2023/04/03 08:13:29;;;;;;;5.47;1.30;;;5.50;99.90;;;;;;5005645;28;20219;-63
2023/04/03 08:15:57;;;;;;;3.67;1.10;;;5.30;99.90;;;;;;4973270;28;20323;-63
2023/04/03 08:18:24;;;;;;;1.83;1.00;;;5.10;99.90;;;;;;4994248;28;20222;-63
2023/04/03 08:20:51;;;;;;;1.20;1.03;;;5.00;99.90;;;;;;4992619;28;20327;-63
2023/04/03 08:23:18;;;;;;;4.70;0.77;;;4.90;99.90;;;;;;5017877;28;20221;-63
2023/04/03 08:25:46;;;;;;;2.17;1.20;;;4.80;99.90;;;;;;4991039;28;20193;-63
2023/04/03 08:28:13;;;;;;;2.13;1.17;;;4.70;99.90;;;;;;5017672;28;21890;-63
2023/04/03 08:30:42;;;;;;;3.20;0.90;;;4.70;99.90;;;;;;4987483;28;20229;-63
2023/04/03 08:33:08;;;;;;;1.50;0.87;;;4.70;99.90;;;;;;4974023;28;20229;-63
2023/04/03 08:35:40;;;;;;;2.63;1.13;;;4.70;99.90;;;;;;5018548;28;20193;-63
2023/04/03 08:38:07;;;;;;;3.40;1.00;;;4.70;99.90;;;;;;4989800;28;20225;-63
2023/04/03 08:40:34;;;;;;;1.53;0.97;;;4.80;99.90;;;;;;4992646;28;20213;-64
2023/04/03 08:43:27;;;;;;;1.43;1.10;;;4.80;99.90;;;;;;5003412;28;20218;-63
2023/04/03 08:45:57;;;;;;;1.60;0.90;;;4.80;99.90;;;;;;4996402;28;20210;-63
2023/04/03 08:48:30;;;;;;;2.80;0.90;;;4.90;99.90;;;;;;4967943;28;20209;-63
2023/04/03 08:51:01;;;;;;;0.90;0.80;;;5.00;99.90;;;;;;5000840;28;20563;-63
2023/04/03 08:53:33;;;;;;;0.87;0.60;;;5.00;99.90;;;;;;4991025;28;20234;-63
2023/04/03 08:56:02;;;;;;;1.13;0.80;;;5.00;99.90;;;;;;4987090;28;21380;-63
2023/04/03 08:58:32;;;;;;;0.57;0.57;;;5.00;99.90;;;;;;4968838;28;20237;-63
2023/04/03 09:01:03;;;;;;;2.47;0.80;;;5.10;99.90;;;;;;4991088;28;20699;-63
2023/04/03 09:03:32;;;;;;;0.57;0.37;;;5.10;99.90;;;;;;4953116;28;20973;-63
2023/04/03 09:06:04;;;;;;;0.50;0.50;;;5.10;99.90;;;;;;4998409;28;20228;-63
2023/04/03 09:08:33;;;;;;;0.60;0.60;;;5.20;99.90;;;;;;5009267;28;20200;-63
2023/04/03 09:11:10;;;;;;;2.00;0.90;;;5.30;99.90;;;;;;4995321;28;21251;-63
2023/04/03 09:13:45;;;;;;;1.47;0.77;;;5.30;99.90;;;;;;4981235;28;20316;-63
2023/04/03 09:16:26;;;;;;;1.83;0.63;;;5.30;99.90;;;;;;5010338;28;20192;-63
2023/04/03 09:19:00;;;;;;;2.07;0.87;;;5.30;99.90;;;;;;4971840;28;20232;-64
2023/04/03 09:21:32;;;;;;;3.83;1.00;;;5.30;99.90;;;;;;5018865;28;21121;-63
2023/04/03 09:24:02;;;;;;;2.80;0.80;;;5.40;99.90;;;;;;5012117;28;20221;-63
2023/04/03 09:26:34;;;;;;;1.17;0.60;;;5.40;99.90;;;;;;5006570;28;20224;-63
2023/04/03 09:29:08;;;;;;;2.10;1.00;;;5.50;99.90;;;;;;4981325;28;20241;-63
2023/04/03 09:31:40;;;;;;;2.07;0.80;;;5.60;99.90;;;;;;5002341;28;20237;-63
2023/04/03 09:34:15;;;;;;;1.63;0.70;;;5.60;99.90;;;;;;4974414;28;21270;-63
2023/04/03 09:36:44;;;;;;;1.43;0.90;;;5.60;99.90;;;;;;5015207;28;20195;-63
2023/04/03 09:39:14;;;;;;;1.03;0.77;;;5.60;99.90;;;;;;5009295;28;20422;-64
2023/04/03 09:41:41;;;;;;;0.80;0.70;;;5.70;99.90;;;;;;5024182;28;20523;-63
2023/04/03 09:44:23;;;;;;;3.43;1.13;;;5.80;99.90;;;;;;5002246;28;20357;-63
2023/04/03 09:46:49;;;;;;;2.33;0.80;;;5.80;99.90;;;;;;4984594;28;20214;-63
2023/04/03 09:49:18;;;;;;;3.17;0.97;;;5.80;99.90;;;;;;4976241;28;20205;-63
2023/04/03 09:51:45;;;;;;;0.70;0.70;;;5.80;99.90;;;;;;4995757;28;20439;-63
2023/04/03 09:54:27;;;;;;;3.17;0.90;;;5.80;99.90;;;;;;5010066;28;21316;-63
2023/04/03 09:56:56;;;;;;;2.47;0.53;;;5.80;99.90;;;;;;5004157;28;20253;-63
2023/04/03 09:59:24;;;;;;;1.27;0.53;;;5.80;99.90;;;;;;4993757;28;20225;-63
2023/04/03 10:01:59;;;;;;;1.13;0.77;;;5.90;99.90;;;;;;5004440;28;20825;-63
2023/04/03 10:04:37;;;;;;;3.33;1.03;;;6.00;99.90;;;;;;4977157;28;20251;-64
2023/04/03 10:07:03;;;;;;;2.47;0.90;;;5.90;99.90;;;;;;5012218;28;20595;-63
2023/04/03 10:09:33;;;;;;;0.90;0.73;;;5.90;99.90;;;;;;5011906;28;20594;-64
2023/04/03 10:12:04;;;;;;;0.47;0.47;;;6.10;99.90;;;;;;5006949;28;20583;-63
2023/04/03 10:14:34;;;;;;;2.03;0.83;;;6.10;99.90;;;;;;5008439;28;20272;-63
2023/04/03 10:17:11;;;;;;;3.80;0.90;;;6.10;99.90;;;;;;5008281;28;20243;-63
2023/04/03 10:19:42;;;;;;;1.00;0.80;;;6.20;99.90;;;;;;5002720;28;20227;-63
2023/04/03 10:22:19;;;;;;;3.50;1.00;;;6.20;99.90;;;;;;4973940;28;20217;-63
2023/04/03 10:24:53;;;;;;;1.27;0.80;;;6.30;99.90;;;;;;5010621;28;23279;-63
2023/04/03 10:27:31;;;;;;;1.70;0.80;;;6.30;99.90;;;;;;5022409;28;20290;-63
2023/04/03 10:30:07;;;;;;;1.60;0.80;;;6.20;99.90;;;;;;4994021;28;20207;-63
2023/04/03 10:32:47;;;;;;;4.30;0.97;;;6.20;99.90;;;;;;5004520;28;20601;-63
2023/04/03 10:35:22;;;;;;;1.63;1.00;;;6.30;99.90;;;;;;5002430;28;20392;-63
2023/04/03 10:38:01;;;;;;;0.80;0.77;;;6.30;99.90;;;;;;4981727;28;20212;-63
2023/04/03 10:40:35;;;;;;;2.47;0.70;;;6.30;99.90;;;;;;5004259;28;20309;-63
2023/04/03 10:43:09;;;;;;;0.77;0.63;;;6.30;99.90;;;;;;5015796;28;20675;-63
2023/04/03 10:45:56;;;;;;;1.37;0.90;;;6.30;99.90;;;;;;5004695;28;20208;-64
2023/04/03 10:48:36;;;;;;;1.70;0.90;;;6.50;99.90;;;;;;5013698;28;20605;-63
2023/04/03 10:51:16;;;;;;;1.23;0.70;;;6.50;99.90;;;;;;4985440;28;20248;-63
2023/04/03 10:53:52;;;;;;;0.50;0.50;;;6.60;99.90;;;;;;4977901;28;20737;-63
2023/04/03 10:56:27;;;;;;;3.90;1.20;;;6.80;99.90;;;;;;5016470;28;20271;-63
2023/04/03 10:58:58;;;;;;;2.23;1.00;;;6.90;99.90;;;;;;5007898;28;20586;-64
2023/04/03 11:01:33;;;;;;;1.77;0.87;;;6.90;99.90;;;;;;5001353;28;20777;-63
2023/04/03 11:04:02;;;;;;;0.60;0.60;;;6.80;99.90;;;;;;4996309;28;20221;-63
2023/04/03 11:06:37;;;;;;;1.30;0.80;;;6.90;99.90;;;;;;5003146;28;20217;-63
2023/04/03 11:09:14;;;;;;;2.43;0.77;;;6.80;99.90;;;;;;4989675;28;20732;-63
2023/04/03 11:11:43;;;;;;;1.63;0.83;;;6.80;99.90;;;;;;5023380;28;20240;-63
2023/04/03 11:14:16;;;;;;;1.97;0.77;;;6.80;99.90;;;;;;4994806;28;20198;-63
2023/04/03 11:16:47;;;;;;;0.80;0.50;;;6.90;99.90;;;;;;4989622;28;20272;-63
2023/04/03 11:19:23;;;;;;;2.83;0.70;;;7.00;99.90;;;;;;4999556;28;20233;-63
2023/04/03 11:21:56;;;;;;;1.97;1.17;;;7.10;99.90;;;;;;5001411;28;20244;-63
2023/04/03 11:24:26;;;;;;;2.83;1.17;;;7.20;99.90;;;;;;4995555;28;20424;-63
2023/04/03 11:26:56;;;;;;;1.17;0.80;;;7.10;99.90;;;;;;5016944;28;20298;-63
2023/04/03 11:29:27;;;;;;;1.80;0.77;;;7.10;99.90;;;;;;5011466;28;20318;-63
2023/04/03 11:32:10;;;;;;;1.80;0.90;;;7.20;99.90;;;;;;5005434;28;20231;-63
2023/04/03 11:34:43;;;;;;;1.90;0.90;;;7.10;99.90;;;;;;5007548;28;20231;-64
2023/04/03 11:37:17;;;;;;;1.43;0.90;;;7.10;99.90;;;;;;4988903;28;20204;-63
2023/04/03 11:39:53;;;;;;;1.50;1.13;;;7.10;99.90;;;;;;4985210;28;20293;-63
2023/04/03 11:42:30;;;;;;;4.20;1.07;;;7.00;99.90;;;;;;5012210;28;24154;-63
2023/04/03 11:45:27;;;;;;;0.93;0.80;;;7.00;99.90;;;;;;5015583;28;20283;-63
2023/04/03 11:47:58;;;;;;;4.90;0.90;;;7.00;99.90;;;;;;5018455;28;20728;-63
2023/04/03 11:50:43;;;;;;;1.20;1.00;;;7.10;99.90;;;;;;5001168;28;20755;-63
2023/04/03 11:53:34;;;;;;;2.43;1.00;;;7.20;99.90;;;;;;4966184;28;20500;-64
2023/04/03 11:56:03;;;;;;;3.60;0.90;;;7.20;99.90;;;;;;5016285;28;20209;-63
2023/04/03 11:58:32;;;;;;;0.60;0.60;;;7.30;99.90;;;;;;5023806;28;20220;-63
2023/04/03 12:01:08;;;;;;;1.30;0.83;;;7.30;99.90;;;;;;4964830;28;20204;-63
2023/04/03 12:04:13;;;;;;;3.47;0.93;;;7.30;99.90;;;;;;4990318;28;20205;-63
2023/04/03 12:07:09;;;;;;;2.33;0.87;;;7.30;99.90;;;;;;4987504;28;20213;-63
2023/04/03 12:09:58;;;;;;;1.33;0.83;;;7.30;99.90;;;;;;4966557;28;20225;-63
2023/04/03 12:12:32;;;;;;;1.20;0.80;;;7.40;99.90;;;;;;5005090;28;21055;-63
2023/04/03 12:15:32;;;;;;;0.80;0.80;;;7.40;99.90;;;;;;4998229;28;20217;-63
2023/04/03 12:17:58;;;;;;;1.57;0.90;;;7.30;99.90;;;;;;5008988;28;20710;-63
2023/04/03 12:20:53;;;;;;;2.50;0.80;;;7.40;99.90;;;;;;4976972;28;20685;-63
2023/04/03 12:23:29;;;;;;;1.77;0.80;;;7.40;99.90;;;;;;4985236;28;20221;-63
2023/04/03 12:26:04;;;;;;;1.60;1.10;;;7.40;99.90;;;;;;4979024;28;20960;-63
2023/04/03 12:28:39;;;;;;;0.80;0.80;;;7.40;99.90;;;;;;5016174;28;20339;-63
2023/04/03 12:31:10;;;;;;;0.80;0.77;;;7.30;99.90;;;;;;4988854;28;20638;-63
2023/04/03 12:33:57;;;;;;;1.00;0.80;;;7.40;99.90;;;;;;5017083;28;20232;-63
2023/04/03 12:36:31;;;;;;;1.03;0.70;;;7.50;99.90;;;;;;4981371;28;20687;-63
2023/04/03 12:39:21;;;;;;;6.00;1.00;;;7.60;99.90;;;;;;4990661;28;20251;-64
2023/04/03 12:41:57;;;;;;;1.00;0.90;;;7.70;99.90;;;;;;4975152;28;20232;-63
2023/04/03 12:44:46;;;;;;;1.17;0.83;;;7.70;99.90;;;;;;5016755;28;20470;-63
2023/04/03 12:47:32;;;;;;;1.73;1.03;;;7.70;99.90;;;;;;4990340;28;20377;-63
2023/04/03 12:50:01;;;;;;;2.83;0.80;;;7.60;99.90;;;;;;4994351;28;20193;-63
2023/04/03 12:52:40;;;;;;;3.97;1.00;;;7.60;99.90;;;;;;4982731;28;20233;-63
2023/04/03 12:55:16;;;;;;;2.67;1.13;;;7.70;99.90;;;;;;4956203;28;20224;-63
2023/04/03 12:57:43;;;;;;;0.73;0.73;;;7.70;99.90;;;;;;5017252;28;20197;-63
2023/04/03 13:00:39;;;;;;;1.57;0.90;;;7.90;99.90;;;;;;4994187;28;20828;-63
2023/04/03 13:03:19;;;;;;;2.93;0.90;;;8.00;99.90;;;;;;4933314;28;20998;-63
2023/04/03 13:05:46;;;;;;;1.70;0.80;;;8.10;99.90;;;;;;4997305;28;20201;-63
2023/04/03 13:08:15;;;;;;;0.80;0.63;;;8.10;99.90;;;;;;4972520;28;20205;-63
2023/04/03 13:10:52;;;;;;;1.33;0.70;;;8.00;99.90;;;;;;4976369;28;20208;-63